Time;durP1;ratioP1;P1;durP2;ratioP2;P2;SDS_P1;SDS_P2;PMS_P1;PMS_P2;Temp;Humidity;BMP_temperature;BMP_pressure;BME280_temperature;BME280_humidity;BME280_pressure;Samples;Min_cycle;Max_cycle;Signal;HPM_P1;HPM_P2
2021/05/13 00:01:20;;;;;;;6.10;4.77;;;12.10;98.60;;;;;;5051332;28;20622;-82
2021/05/13 00:03:47;;;;;;;5.83;5.33;;;12.10;98.90;;;;;;5050531;28;20676;-82
2021/05/13 00:06:13;;;;;;;6.23;5.67;;;12.00;98.90;;;;;;5051406;28;20971;-82
2021/05/13 00:08:40;;;;;;;5.13;4.63;;;12.00;98.90;;;;;;5050271;28;20609;-81
2021/05/13 00:11:07;;;;;;;5.10;4.70;;;12.00;99.10;;;;;;5051330;28;20627;-82
2021/05/13 00:13:36;;;;;;;5.77;5.27;;;11.90;99.00;;;;;;5051162;28;20609;-82
2021/05/13 00:16:03;;;;;;;5.60;5.10;;;11.90;99.10;;;;;;5051692;28;21325;-82
2021/05/13 00:18:31;;;;;;;5.47;4.97;;;12.00;99.20;;;;;;5050647;28;21054;-81
2021/05/13 00:20:58;;;;;;;4.77;4.30;;;12.10;98.90;;;;;;5051830;28;20692;-82
2021/05/13 00:23:25;;;;;;;6.17;5.60;;;12.10;98.70;;;;;;5050593;28;20626;-82
2021/05/13 00:25:52;;;;;;;5.40;4.90;;;12.20;98.70;;;;;;5050919;28;20658;-82
2021/05/13 00:28:21;;;;;;;5.23;4.73;;;12.30;98.60;;;;;;5051045;28;20665;-81
2021/05/13 00:30:47;;;;;;;5.53;5.07;;;12.30;98.20;;;;;;5031023;28;20726;-82
2021/05/13 00:33:14;;;;;;;5.07;4.60;;;12.30;98.00;;;;;;5043903;28;20627;-82
2021/05/13 00:35:42;;;;;;;5.83;5.40;;;12.30;98.10;;;;;;5047402;28;20721;-81
2021/05/13 00:38:08;;;;;;;6.23;4.90;;;12.30;97.90;;;;;;5050135;28;21435;-82
2021/05/13 00:40:35;;;;;;;5.60;5.10;;;12.40;97.40;;;;;;5049992;28;20623;-82
2021/05/13 00:43:01;;;;;;;14.60;5.63;;;12.40;97.20;;;;;;5051372;28;20614;-82
2021/05/13 00:45:29;;;;;;;5.67;5.27;;;12.30;97.20;;;;;;5050021;28;21548;-82
2021/05/13 00:48:05;;;;;;;6.53;5.10;;;12.20;97.40;;;;;;5050986;28;20659;-82
2021/05/13 00:50:33;;;;;;;7.17;6.07;;;12.20;97.40;;;;;;5048785;28;21017;-81
2021/05/13 00:53:05;;;;;;;9.00;5.30;;;11.90;97.70;;;;;;5051519;28;20669;-82
2021/05/13 00:55:32;;;;;;;8.67;4.80;;;11.80;98.20;;;;;;5050238;28;20631;-82
2021/05/13 00:57:58;;;;;;;5.00;4.50;;;11.70;98.50;;;;;;5050832;28;20627;-81
2021/05/13 01:00:34;;;;;;;5.80;4.60;;;11.60;98.70;;;;;;5049963;28;20973;-81
2021/05/13 01:03:02;;;;;;;6.10;5.13;;;11.60;98.50;;;;;;5048937;28;20630;-81
2021/05/13 01:05:34;;;;;;;5.60;4.53;;;11.80;98.50;;;;;;5049887;28;20921;-82
2021/05/13 01:08:04;;;;;;;4.73;3.90;;;11.80;98.10;;;;;;5050575;28;21277;-82
2021/05/13 01:10:36;;;;;;;4.80;4.40;;;11.90;97.90;;;;;;5050220;28;20633;-81
2021/05/13 01:13:08;;;;;;;8.10;4.47;;;11.90;97.50;;;;;;5050744;28;21115;-82
2021/05/13 01:15:41;;;;;;;7.50;4.63;;;11.90;97.30;;;;;;5050266;28;20638;-82
2021/05/13 01:18:16;;;;;;;5.23;4.73;;;11.90;97.70;;;;;;5050853;28;20626;-81
2021/05/13 01:20:45;;;;;;;6.03;4.70;;;12.00;97.50;;;;;;5050433;28;20637;-82
2021/05/13 01:23:15;;;;;;;6.20;5.70;;;11.90;97.30;;;;;;5050137;28;20622;-81
2021/05/13 01:25:45;;;;;;;6.30;5.20;;;12.00;97.30;;;;;;5049813;28;20730;-81
2021/05/13 01:28:12;;;;;;;4.83;4.43;;;12.00;97.00;;;;;;5050056;28;20765;-81
2021/05/13 01:30:39;;;;;;;8.60;5.03;;;11.80;97.10;;;;;;5049887;28;20623;-81
2021/05/13 01:33:08;;;;;;;5.00;4.50;;;11.90;97.30;;;;;;5050499;28;20619;-81
2021/05/13 01:35:36;;;;;;;5.57;5.07;;;11.90;97.20;;;;;;5049897;28;20673;-81
2021/05/13 01:38:06;;;;;;;12.67;5.03;;;11.90;97.20;;;;;;5050118;28;20666;-82
2021/05/13 01:40:36;;;;;;;8.73;5.33;;;11.80;97.50;;;;;;5049254;28;20643;-81
2021/05/13 01:43:03;;;;;;;5.83;5.23;;;11.90;97.20;;;;;;5049915;28;20627;-81
2021/05/13 01:45:30;;;;;;;5.80;5.00;;;12.00;96.80;;;;;;5045999;28;20630;-81
2021/05/13 01:48:02;;;;;;;7.20;5.27;;;12.00;96.60;;;;;;5050444;28;20690;-82
2021/05/13 01:50:31;;;;;;;7.63;5.20;;;12.00;96.40;;;;;;5045922;28;20755;-82
2021/05/13 01:52:59;;;;;;;9.13;6.27;;;12.00;96.60;;;;;;5040949;28;20638;-82
2021/05/13 01:55:27;;;;;;;5.47;4.97;;;12.00;96.80;;;;;;5045016;28;20641;-82
2021/05/13 01:57:56;;;;;;;7.23;5.20;;;11.90;96.90;;;;;;5049613;28;21001;-82
2021/05/13 02:00:25;;;;;;;5.13;4.70;;;11.90;97.00;;;;;;5049857;28;20657;-81
2021/05/13 02:02:53;;;;;;;5.60;4.90;;;11.90;97.20;;;;;;5048893;28;21206;-81
2021/05/13 02:05:22;;;;;;;4.33;3.93;;;11.70;97.70;;;;;;5048714;28;20634;-82
2021/05/13 02:07:50;;;;;;;7.77;5.03;;;11.60;98.10;;;;;;5049671;28;21222;-81
2021/05/13 02:10:18;;;;;;;6.20;5.23;;;11.40;98.50;;;;;;5049197;28;21221;-82
2021/05/13 02:12:45;;;;;;;5.37;4.97;;;11.50;99.10;;;;;;5049883;28;20642;-82
2021/05/13 02:15:16;;;;;;;6.63;5.90;;;11.60;98.70;;;;;;5049635;28;20737;-81
2021/05/13 02:17:53;;;;;;;8.03;5.50;;;11.70;98.60;;;;;;5039313;28;20741;-81
2021/05/13 02:20:23;;;;;;;7.37;5.90;;;11.70;98.00;;;;;;5048791;28;20721;-82
2021/05/13 02:22:50;;;;;;;5.60;5.07;;;11.70;97.70;;;;;;5049818;28;21016;-82
2021/05/13 02:25:17;;;;;;;7.70;5.00;;;11.70;97.90;;;;;;5049592;28;20649;-82
2021/05/13 02:27:43;;;;;;;8.83;6.57;;;11.70;97.50;;;;;;5049536;28;20669;-82
2021/05/13 02:30:12;;;;;;;6.60;5.37;;;11.60;97.50;;;;;;5048395;28;20642;-81
2021/05/13 02:32:40;;;;;;;6.47;5.80;;;11.60;97.50;;;;;;5048542;28;20618;-81
2021/05/13 02:35:08;;;;;;;6.10;5.50;;;11.60;97.70;;;;;;5048976;28;20632;-82
2021/05/13 02:37:34;;;;;;;8.43;4.93;;;11.50;98.10;;;;;;5049191;28;20671;-81
2021/05/13 02:40:01;;;;;;;5.30;4.80;;;11.50;98.50;;;;;;5048927;28;20615;-82
2021/05/13 02:42:27;;;;;;;6.33;5.73;;;11.50;98.20;;;;;;5049047;28;20615;-81
2021/05/13 02:44:54;;;;;;;6.53;5.60;;;11.30;98.30;;;;;;5048672;28;20733;-82
2021/05/13 02:47:20;;;;;;;7.23;5.03;;;11.20;99.00;;;;;;5049085;28;20658;-81
2021/05/13 02:49:47;;;;;;;12.03;5.63;;;11.10;98.90;;;;;;5048703;28;20615;-81
2021/05/13 02:52:14;;;;;;;8.43;5.33;;;11.00;99.20;;;;;;5049466;28;20660;-81
2021/05/13 02:54:40;;;;;;;5.47;4.90;;;10.90;99.60;;;;;;5043692;28;20701;-81
2021/05/13 02:57:06;;;;;;;5.83;5.33;;;11.00;99.90;;;;;;5049025;28;21241;-81
2021/05/13 02:59:42;;;;;;;6.17;5.50;;;11.00;99.80;;;;;;5048491;28;21206;-81
2021/05/13 03:02:09;;;;;;;9.40;5.97;;;11.20;99.50;;;;;;5049115;28;20721;-81
2021/05/13 03:04:35;;;;;;;8.20;5.20;;;11.10;99.50;;;;;;5052137;28;21036;-82
2021/05/13 03:07:03;;;;;;;6.50;5.07;;;11.20;99.40;;;;;;5053176;28;20650;-81
2021/05/13 03:09:29;;;;;;;6.03;5.50;;;11.10;99.20;;;;;;5052806;28;21242;-81
2021/05/13 03:11:56;;;;;;;6.10;5.60;;;11.10;99.40;;;;;;5052764;28;20618;-81
2021/05/13 03:14:23;;;;;;;8.93;5.70;;;11.30;99.20;;;;;;5053230;28;20622;-81
2021/05/13 03:16:49;;;;;;;6.17;5.57;;;11.30;99.00;;;;;;5053373;28;20636;-82
2021/05/13 03:19:20;;;;;;;7.57;5.13;;;11.40;98.60;;;;;;5052213;28;20618;-81
2021/05/13 03:21:47;;;;;;;5.47;4.97;;;11.40;98.20;;;;;;5053307;28;20606;-81
2021/05/13 03:24:20;;;;;;;6.03;5.53;;;11.50;97.90;;;;;;5053068;28;20717;-81
2021/05/13 03:26:57;;;;;;;5.97;5.50;;;11.50;97.70;;;;;;5052958;28;20972;-81
2021/05/13 03:29:23;;;;;;;5.80;5.27;;;11.50;97.80;;;;;;5052426;28;20631;-81
2021/05/13 03:31:50;;;;;;;5.13;4.70;;;11.40;97.70;;;;;;5052912;28;21170;-81
2021/05/13 03:34:16;;;;;;;5.67;5.07;;;11.30;98.10;;;;;;5051359;28;21202;-81
2021/05/13 03:36:42;;;;;;;5.27;4.87;;;11.20;98.40;;;;;;5052172;28;20991;-81
2021/05/13 03:39:10;;;;;;;5.67;5.07;;;11.20;98.20;;;;;;5050056;28;21021;-82
2021/05/13 03:41:37;;;;;;;5.70;4.60;;;11.20;98.30;;;;;;5052658;28;20672;-81
2021/05/13 03:44:05;;;;;;;4.90;4.50;;;11.00;98.10;;;;;;5052241;28;20665;-81
2021/05/13 03:46:31;;;;;;;4.93;4.53;;;11.00;98.60;;;;;;5052354;28;20661;-82
2021/05/13 03:48:58;;;;;;;5.20;4.70;;;10.80;98.60;;;;;;5051478;28;20630;-81
2021/05/13 03:51:24;;;;;;;5.33;4.83;;;10.80;98.50;;;;;;5052202;28;20696;-81
2021/05/13 03:53:51;;;;;;;4.73;4.33;;;10.80;98.90;;;;;;5051760;28;20650;-81
2021/05/13 03:56:17;;;;;;;6.80;5.87;;;10.70;99.00;;;;;;5052568;28;20610;-82
2021/05/13 03:58:48;;;;;;;4.43;4.10;;;10.70;98.90;;;;;;5051259;28;20662;-81
2021/05/13 04:01:28;;;;;;;5.03;4.47;;;10.60;98.90;;;;;;5032469;28;20722;-81
2021/05/13 04:03:55;;;;;;;5.20;4.53;;;10.60;98.60;;;;;;5046528;28;21191;-81
2021/05/13 04:06:21;;;;;;;8.43;5.10;;;10.60;98.70;;;;;;5046860;28;20638;-81
2021/05/13 04:08:49;;;;;;;10.20;5.93;;;10.80;98.90;;;;;;5051379;28;20662;-81
2021/05/13 04:11:16;;;;;;;6.70;6.00;;;10.80;98.50;;;;;;5052413;28;21073;-81
2021/05/13 04:13:43;;;;;;;8.33;6.17;;;10.90;98.20;;;;;;5051186;28;20622;-81
2021/05/13 04:16:10;;;;;;;6.67;5.70;;;10.90;98.10;;;;;;5051862;28;20654;-82
2021/05/13 04:18:36;;;;;;;6.67;5.40;;;10.90;98.50;;;;;;5050281;28;20657;-81
2021/05/13 04:21:03;;;;;;;6.03;5.50;;;10.90;98.60;;;;;;5051192;28;20631;-81
2021/05/13 04:23:29;;;;;;;7.03;6.33;;;10.90;98.60;;;;;;5052342;28;20985;-81
2021/05/13 04:25:56;;;;;;;6.97;5.70;;;11.00;98.20;;;;;;5051908;28;20725;-81
2021/05/13 04:28:23;;;;;;;6.23;5.73;;;11.10;98.10;;;;;;5051122;28;21292;-81
2021/05/13 04:30:50;;;;;;;6.00;5.50;;;11.20;97.90;;;;;;5051285;28;20975;-81
2021/05/13 04:33:16;;;;;;;5.77;5.27;;;11.20;97.40;;;;;;5050779;28;20607;-81
2021/05/13 04:35:42;;;;;;;5.77;5.27;;;11.10;98.10;;;;;;5051692;28;20687;-81
2021/05/13 04:38:11;;;;;;;7.40;6.60;;;11.00;98.20;;;;;;5051502;28;20637;-81
2021/05/13 04:40:37;;;;;;;9.77;6.93;;;11.10;98.30;;;;;;5050009;28;20725;-81
2021/05/13 04:43:04;;;;;;;6.80;6.13;;;11.10;98.30;;;;;;5051857;28;20622;-81
2021/05/13 04:45:30;;;;;;;8.27;6.33;;;11.10;98.50;;;;;;5050942;28;21002;-81
2021/05/13 04:48:10;;;;;;;6.43;5.90;;;11.30;98.40;;;;;;5051070;28;20711;-81
2021/05/13 04:50:37;;;;;;;7.10;5.43;;;11.50;97.90;;;;;;5050565;28;20626;-81
2021/05/13 04:53:08;;;;;;;6.67;6.07;;;11.50;97.30;;;;;;5051390;28;20980;-82
2021/05/13 04:55:35;;;;;;;6.93;6.23;;;11.60;97.40;;;;;;5051163;28;20619;-81
2021/05/13 04:58:01;;;;;;;7.33;6.63;;;11.60;97.10;;;;;;5050849;28;20622;-81
2021/05/13 05:00:28;;;;;;;9.70;7.77;;;11.60;97.20;;;;;;5050432;28;20614;-81
2021/05/13 05:02:55;;;;;;;7.50;6.70;;;11.50;97.20;;;;;;5050528;28;20626;-81
2021/05/13 05:05:23;;;;;;;7.00;6.40;;;11.50;97.50;;;;;;5050588;28;21028;-81
2021/05/13 05:07:50;;;;;;;7.73;6.20;;;11.50;97.80;;;;;;5050920;28;20664;-82
2021/05/13 05:10:16;;;;;;;8.50;6.00;;;11.60;98.10;;;;;;5049880;28;20654;-81
2021/05/13 05:12:43;;;;;;;8.83;6.47;;;11.70;97.90;;;;;;5050562;28;21022;-81
2021/05/13 05:15:11;;;;;;;7.43;6.73;;;11.90;97.60;;;;;;5050025;28;21022;-81
2021/05/13 05:17:37;;;;;;;7.47;6.80;;;11.90;97.20;;;;;;5050721;28;20711;-81
2021/05/13 05:20:05;;;;;;;11.77;7.23;;;12.10;97.10;;;;;;5050034;28;20618;-81
2021/05/13 05:22:32;;;;;;;7.83;7.03;;;12.10;96.90;;;;;;5050651;28;20615;-81
2021/05/13 05:24:59;;;;;;;7.50;6.80;;;12.00;96.60;;;;;;5050158;28;20668;-81
2021/05/13 05:27:25;;;;;;;6.90;6.27;;;12.00;96.90;;;;;;5043460;28;20646;-81
2021/05/13 05:29:52;;;;;;;7.93;7.00;;;12.10;96.90;;;;;;5049260;28;20645;-81
2021/05/13 05:32:19;;;;;;;11.17;6.87;;;12.30;96.80;;;;;;5050490;28;20623;-81
2021/05/13 05:34:46;;;;;;;7.83;6.97;;;12.40;96.40;;;;;;5046854;28;20676;-81
2021/05/13 05:37:13;;;;;;;10.00;6.77;;;12.50;96.10;;;;;;5049835;28;20630;-80
2021/05/13 05:39:40;;;;;;;7.67;6.17;;;12.70;95.90;;;;;;5049659;28;20630;-81
2021/05/13 05:42:07;;;;;;;6.47;5.87;;;12.80;95.70;;;;;;5050002;28;20613;-80
2021/05/13 05:44:33;;;;;;;8.90;6.93;;;12.80;95.50;;;;;;5050516;28;20657;-81
2021/05/13 05:46:59;;;;;;;7.00;6.17;;;12.90;95.60;;;;;;5050304;28;20673;-81
2021/05/13 05:49:26;;;;;;;7.73;6.83;;;12.90;95.60;;;;;;5050119;28;20641;-82
2021/05/13 05:51:52;;;;;;;7.67;6.87;;;12.90;95.30;;;;;;5049892;28;20618;-81
2021/05/13 05:54:19;;;;;;;7.70;6.33;;;13.10;95.40;;;;;;5050046;28;20623;-81
2021/05/13 05:56:46;;;;;;;7.20;6.60;;;13.10;95.00;;;;;;5049775;28;20680;-81
2021/05/13 05:59:12;;;;;;;8.20;6.50;;;13.20;95.00;;;;;;5050267;28;20619;-81
2021/05/13 06:01:39;;;;;;;10.20;7.70;;;13.30;94.70;;;;;;5050724;28;20696;-80
2021/05/13 06:04:08;;;;;;;6.43;5.83;;;13.40;94.60;;;;;;5049138;28;20707;-81
2021/05/13 06:06:34;;;;;;;8.20;6.13;;;13.40;94.20;;;;;;5050345;28;20615;-81
2021/05/13 06:09:00;;;;;;;7.43;6.73;;;13.40;94.20;;;;;;5048542;28;20638;-80
2021/05/13 06:11:27;;;;;;;6.87;6.17;;;13.30;94.00;;;;;;5049953;28;21156;-81
2021/05/13 06:13:54;;;;;;;6.63;6.03;;;13.40;94.00;;;;;;5049717;28;20746;-82
2021/05/13 06:16:20;;;;;;;6.30;5.70;;;13.30;94.10;;;;;;5050464;28;21112;-81
2021/05/13 06:18:54;;;;;;;6.80;6.17;;;13.10;93.80;;;;;;5046890;28;21209;-81
2021/05/13 06:21:39;;;;;;;6.33;5.77;;;13.10;93.80;;;;;;5050100;28;20618;-83
2021/05/13 06:24:11;;;;;;;7.37;6.60;;;13.00;93.90;;;;;;5050421;28;21017;-81
2021/05/13 06:26:38;;;;;;;7.13;5.73;;;13.10;94.10;;;;;;5050351;28;20653;-80
2021/05/13 06:29:06;;;;;;;9.37;6.00;;;13.30;94.10;;;;;;5049405;28;20626;-80
2021/05/13 06:31:34;;;;;;;6.50;5.80;;;13.10;93.40;;;;;;5048170;28;20642;-80
2021/05/13 06:34:00;;;;;;;9.87;5.60;;;13.10;93.60;;;;;;5048767;28;20662;-80
2021/05/13 06:36:27;;;;;;;6.27;5.67;;;13.30;94.00;;;;;;5049257;28;20622;-79
2021/05/13 06:38:53;;;;;;;6.40;5.80;;;13.50;93.80;;;;;;5053132;28;20635;-80
2021/05/13 06:41:20;;;;;;;8.53;5.90;;;13.40;93.30;;;;;;5053763;28;20646;-80
2021/05/13 06:43:46;;;;;;;5.70;5.20;;;13.70;93.40;;;;;;5052986;28;20623;-80
2021/05/13 06:46:13;;;;;;;6.13;5.27;;;13.80;92.90;;;;;;5053222;28;20615;-80
2021/05/13 06:48:40;;;;;;;5.80;5.17;;;14.00;93.00;;;;;;5051959;28;20664;-80
2021/05/13 06:51:06;;;;;;;6.00;4.97;;;14.00;92.40;;;;;;5053461;28;20614;-80
2021/05/13 06:53:33;;;;;;;5.70;5.20;;;14.10;92.70;;;;;;5053186;28;21019;-80
2021/05/13 06:55:59;;;;;;;6.27;5.43;;;14.20;92.10;;;;;;5047870;28;20668;-80
2021/05/13 06:58:26;;;;;;;6.23;5.73;;;14.20;92.10;;;;;;5052765;28;20620;-80
2021/05/13 07:00:53;;;;;;;9.17;7.70;;;14.20;91.50;;;;;;5053003;28;20612;-80
2021/05/13 07:03:21;;;;;;;8.63;7.20;;;14.20;92.20;;;;;;5051847;28;20647;-81
2021/05/13 07:05:47;;;;;;;8.33;6.40;;;14.20;91.80;;;;;;5053148;28;20647;-80
2021/05/13 07:08:14;;;;;;;7.00;6.10;;;14.10;91.50;;;;;;5053394;28;20669;-80
2021/05/13 07:10:40;;;;;;;8.23;7.43;;;14.20;92.00;;;;;;5052299;28;20624;-80
2021/05/13 07:13:07;;;;;;;7.67;6.73;;;14.30;92.20;;;;;;5053246;28;21209;-80
2021/05/13 07:15:33;;;;;;;5.83;5.30;;;14.30;91.20;;;;;;5052871;28;20966;-80
2021/05/13 07:18:01;;;;;;;6.83;6.23;;;14.20;91.80;;;;;;5052197;28;20965;-80
2021/05/13 07:20:30;;;;;;;7.10;5.90;;;14.50;92.20;;;;;;5052543;28;20713;-80
2021/05/13 07:22:57;;;;;;;8.27;5.80;;;14.60;91.70;;;;;;5052386;28;20626;-81
2021/05/13 07:25:24;;;;;;;6.40;4.93;;;14.10;90.80;;;;;;5052469;28;20634;-81
2021/05/13 07:27:50;;;;;;;5.57;5.07;;;13.80;91.30;;;;;;5052254;28;20766;-80
2021/05/13 07:30:18;;;;;;;5.90;5.33;;;14.20;92.00;;;;;;5050562;28;21173;-79
2021/05/13 07:32:44;;;;;;;5.50;5.00;;;14.60;91.60;;;;;;5052706;28;20685;-80
2021/05/13 07:35:14;;;;;;;6.30;5.77;;;14.90;91.20;;;;;;5052611;28;20982;-80
2021/05/13 07:37:41;;;;;;;6.27;5.13;;;15.10;90.90;;;;;;5051844;28;20637;-80
2021/05/13 07:40:10;;;;;;;5.33;4.87;;;15.30;90.50;;;;;;5051719;28;20721;-80
2021/05/13 07:42:36;;;;;;;7.80;5.53;;;15.60;90.10;;;;;;5052020;28;20724;-80
2021/05/13 07:45:03;;;;;;;5.60;5.10;;;15.50;89.60;;;;;;5050664;28;20635;-80
2021/05/13 07:47:32;;;;;;;5.30;4.70;;;15.60;89.70;;;;;;5048421;28;20755;-80
2021/05/13 07:49:59;;;;;;;5.47;4.83;;;15.50;87.10;;;;;;5050765;28;20748;-80
2021/05/13 07:52:25;;;;;;;6.10;5.50;;;15.50;86.30;;;;;;5051561;28;20674;-80
2021/05/13 07:54:52;;;;;;;6.13;5.50;;;15.40;88.50;;;;;;5051588;28;20669;-80
2021/05/13 07:57:19;;;;;;;5.67;5.17;;;15.30;87.80;;;;;;5051454;28;20698;-79
2021/05/13 07:59:45;;;;;;;4.93;4.53;;;15.30;86.80;;;;;;5051898;28;20636;-79
2021/05/13 08:02:15;;;;;;;4.43;4.10;;;15.40;88.30;;;;;;5044996;28;21214;-81
2021/05/13 08:04:41;;;;;;;4.77;4.27;;;15.50;86.00;;;;;;5048916;28;20637;-81
2021/05/13 08:07:08;;;;;;;3.70;3.40;;;15.30;85.40;;;;;;5051821;28;20650;-81
2021/05/13 08:09:34;;;;;;;3.50;3.30;;;15.70;83.70;;;;;;5049750;28;20657;-81
2021/05/13 08:12:01;;;;;;;4.00;3.30;;;15.80;84.80;;;;;;5050086;28;20637;-79
2021/05/13 08:14:27;;;;;;;5.07;2.60;;;16.00;82.60;;;;;;5051078;28;21284;-79
2021/05/13 08:16:54;;;;;;;2.70;2.50;;;16.10;81.10;;;;;;5051660;28;20672;-79
2021/05/13 08:19:20;;;;;;;3.47;2.37;;;16.20;79.90;;;;;;5042951;28;20733;-79
2021/05/13 08:21:47;;;;;;;2.50;2.30;;;16.40;78.90;;;;;;5051860;28;20619;-79
2021/05/13 08:24:13;;;;;;;4.03;2.50;;;16.60;79.30;;;;;;5051534;28;20669;-79
2021/05/13 08:26:39;;;;;;;4.37;2.73;;;16.90;78.20;;;;;;5050564;28;20665;-79
2021/05/13 08:29:07;;;;;;;3.90;2.43;;;16.90;75.80;;;;;;5049567;28;20692;-79
2021/05/13 08:31:33;;;;;;;3.27;2.13;;;17.10;75.60;;;;;;5051634;28;20626;-79
2021/05/13 08:33:59;;;;;;;2.07;1.87;;;17.00;69.10;;;;;;5050957;28;20729;-79
2021/05/13 08:36:26;;;;;;;2.37;2.17;;;16.70;71.90;;;;;;5051644;28;20706;-79
2021/05/13 08:38:52;;;;;;;5.57;1.80;;;16.50;70.90;;;;;;5050097;28;20635;-79
2021/05/13 08:41:19;;;;;;;2.10;1.90;;;16.80;70.80;;;;;;5050606;28;20638;-79
2021/05/13 08:43:50;;;;;;;4.07;3.70;;;16.30;69.20;;;;;;5051544;28;20631;-80
2021/05/13 08:46:18;;;;;;;2.47;2.27;;;16.10;69.70;;;;;;5051148;28;20994;-80
2021/05/13 08:48:44;;;;;;;3.73;2.00;;;16.00;68.40;;;;;;5050318;28;20769;-79
2021/05/13 08:51:11;;;;;;;2.77;2.00;;;15.90;67.70;;;;;;5050522;28;20654;-80
2021/05/13 08:53:47;;;;;;;2.23;2.03;;;16.20;69.80;;;;;;5051329;28;20683;-81
2021/05/13 08:56:14;;;;;;;2.20;1.70;;;16.30;68.90;;;;;;5051739;28;20721;-80
2021/05/13 08:58:42;;;;;;;3.23;1.70;;;16.30;68.80;;;;;;5050275;28;20618;-79
2021/05/13 09:01:13;;;;;;;1.87;1.57;;;16.90;69.80;;;;;;5051575;28;20633;-79
2021/05/13 09:03:42;;;;;;;2.57;2.10;;;17.60;71.30;;;;;;5050799;28;20662;-79
2021/05/13 09:06:09;;;;;;;1.97;1.87;;;18.10;69.20;;;;;;5050940;28;20953;-79
2021/05/13 09:08:35;;;;;;;3.17;2.50;;;17.80;67.60;;;;;;5050120;28;20838;-79
2021/05/13 09:11:13;;;;;;;2.33;2.03;;;18.30;69.80;;;;;;5050846;28;20639;-78
2021/05/13 09:13:40;;;;;;;3.40;2.43;;;18.70;67.60;;;;;;5050866;28;20964;-79
2021/05/13 09:16:25;;;;;;;2.93;2.73;;;18.40;66.80;;;;;;5050622;28;21186;-80
2021/05/13 09:18:53;;;;;;;5.03;3.10;;;18.30;66.50;;;;;;5049511;28;20765;-79
2021/05/13 09:21:20;;;;;;;3.30;3.00;;;18.40;68.10;;;;;;5050990;28;20650;-79
2021/05/13 09:23:46;;;;;;;3.63;2.47;;;18.40;68.90;;;;;;5050112;28;20662;-79
2021/05/13 09:26:15;;;;;;;3.33;2.70;;;17.40;67.80;;;;;;5050693;28;20600;-79
2021/05/13 09:28:44;;;;;;;2.80;2.60;;;17.40;69.30;;;;;;5047619;28;20749;-79
2021/05/13 09:31:35;;;;;;;3.10;2.87;;;17.10;68.80;;;;;;5049943;28;20616;-79
2021/05/13 09:34:07;;;;;;;2.57;2.37;;;16.90;68.80;;;;;;5049739;28;20994;-78
2021/05/13 09:36:35;;;;;;;2.40;2.30;;;17.10;71.30;;;;;;5049541;28;20673;-80
2021/05/13 09:39:20;;;;;;;4.90;2.60;;;17.50;68.80;;;;;;5049113;28;20634;-79
2021/05/13 09:41:57;;;;;;;2.93;2.60;;;18.00;67.80;;;;;;5049738;28;21205;-80
2021/05/13 09:44:32;;;;;;;2.33;2.13;;;18.20;67.10;;;;;;5050363;28;20635;-79
2021/05/13 09:47:12;;;;;;;4.10;3.10;;;18.40;65.60;;;;;;5049993;28;20662;-79
2021/05/13 09:49:54;;;;;;;4.33;3.10;;;18.70;65.70;;;;;;5048797;28;20639;-80
2021/05/13 09:52:45;;;;;;;3.50;2.37;;;18.80;66.10;;;;;;5049730;28;20678;-79
2021/05/13 09:55:13;;;;;;;4.30;3.10;;;18.90;65.30;;;;;;5049341;28;20632;-79
2021/05/13 09:57:40;;;;;;;2.60;2.17;;;18.80;64.20;;;;;;5049666;28;20630;-79
2021/05/13 10:00:08;;;;;;;3.10;2.80;;;19.10;63.90;;;;;;5048479;28;21027;-80
2021/05/13 10:02:35;;;;;;;3.07;2.77;;;19.10;62.50;;;;;;5049641;28;21176;-79
2021/05/13 10:05:03;;;;;;;3.37;2.97;;;19.20;62.70;;;;;;5049035;28;21202;-80
2021/05/13 10:07:29;;;;;;;2.73;2.30;;;19.30;62.90;;;;;;5049562;28;20684;-79
2021/05/13 10:09:56;;;;;;;2.70;2.43;;;19.40;62.70;;;;;;5048833;28;20775;-80
2021/05/13 10:12:22;;;;;;;3.23;2.77;;;19.10;61.40;;;;;;5031157;28;21091;-80
2021/05/13 10:14:52;;;;;;;3.10;2.80;;;18.60;61.80;;;;;;5049559;28;20626;-80
2021/05/13 10:17:21;;;;;;;1.70;1.60;;;18.40;63.50;;;;;;5050006;28;20666;-80
2021/05/13 10:19:50;;;;;;;2.40;2.10;;;18.10;62.40;;;;;;5049205;28;20629;-80
2021/05/13 10:22:17;;;;;;;3.73;2.20;;;17.50;62.40;;;;;;5050362;28;21221;-79
2021/05/13 10:24:44;;;;;;;2.40;1.80;;;17.10;65.60;;;;;;5049915;28;20634;-80
2021/05/13 10:27:16;;;;;;;1.80;1.67;;;16.90;63.60;;;;;;5049643;28;21032;-79
2021/05/13 10:29:42;;;;;;;2.23;2.00;;;16.60;66.00;;;;;;5046746;28;20623;-80
2021/05/13 10:32:13;;;;;;;2.90;1.90;;;16.80;65.90;;;;;;5050023;28;20650;-80
2021/05/13 10:34:57;;;;;;;2.07;1.93;;;17.20;65.90;;;;;;5049417;28;20622;-80
2021/05/13 10:37:30;;;;;;;2.20;2.00;;;17.30;63.80;;;;;;5043404;28;20646;-80
2021/05/13 10:40:20;;;;;;;1.93;1.60;;;17.10;64.80;;;;;;5043265;28;20740;-80
2021/05/13 10:42:48;;;;;;;4.20;1.80;;;17.40;65.40;;;;;;5050428;28;20619;-80
2021/05/13 10:45:37;;;;;;;3.13;1.83;;;17.20;62.40;;;;;;5048949;28;20665;-80
2021/05/13 10:48:21;;;;;;;2.07;1.90;;;16.90;64.40;;;;;;5049359;28;20657;-80
2021/05/13 10:50:54;;;;;;;2.60;2.50;;;16.70;66.10;;;;;;5049032;28;20642;-80
2021/05/13 10:53:45;;;;;;;1.80;1.70;;;16.60;66.80;;;;;;5049674;28;20958;-80
2021/05/13 10:56:22;;;;;;;3.37;1.97;;;16.60;67.10;;;;;;5028942;28;20977;-80
2021/05/13 10:59:04;;;;;;;1.80;1.70;;;16.70;67.80;;;;;;5047759;28;20622;-80
2021/05/13 11:01:45;;;;;;;5.47;1.70;;;16.70;66.70;;;;;;5049159;28;20626;-80
2021/05/13 11:04:39;;;;;;;1.60;1.50;;;16.80;68.50;;;;;;5048636;28;20657;-80
2021/05/13 11:07:16;;;;;;;2.23;2.10;;;17.00;68.60;;;;;;5029099;28;20619;-81
2021/05/13 11:09:53;;;;;;;2.13;1.90;;;17.10;73.40;;;;;;5042080;28;20680;-81
2021/05/13 11:12:22;;;;;;;3.50;2.00;;;17.30;72.20;;;;;;5048853;28;20622;-81
2021/05/13 11:15:04;;;;;;;3.67;2.27;;;17.00;70.40;;;;;;5049368;28;20630;-81
2021/05/13 11:18:07;;;;;;;2.17;1.30;;;17.10;71.70;;;;;;5047977;28;20701;-80
2021/05/13 11:20:35;;;;;;;1.83;1.53;;;17.50;69.90;;;;;;5048726;28;20620;-81
2021/05/13 11:23:04;;;;;;;2.73;1.83;;;17.70;67.10;;;;;;5048783;28;20620;-80
2021/05/13 11:25:40;;;;;;;2.23;1.60;;;17.90;65.30;;;;;;5051507;28;21032;-81
2021/05/13 11:28:27;;;;;;;1.53;1.13;;;18.40;66.30;;;;;;5050916;28;20721;-81
2021/05/13 11:30:55;;;;;;;2.17;1.30;;;19.40;64.90;;;;;;5052663;28;20952;-80
2021/05/13 11:33:22;;;;;;;1.13;1.10;;;19.40;59.20;;;;;;5052540;28;20730;-81
2021/05/13 11:35:49;;;;;;;2.27;1.40;;;19.70;59.20;;;;;;5052095;28;20621;-79
2021/05/13 11:38:18;;;;;;;3.03;1.47;;;19.60;58.00;;;;;;5051602;28;20619;-79
2021/05/13 11:40:46;;;;;;;2.73;1.40;;;18.80;56.80;;;;;;5051881;28;20629;-80
2021/05/13 11:43:24;;;;;;;2.17;1.50;;;18.30;59.30;;;;;;5052761;28;21292;-80
2021/05/13 11:45:52;;;;;;;1.67;1.10;;;18.00;62.30;;;;;;5052788;28;21085;-80
2021/05/13 11:48:34;;;;;;;1.90;1.70;;;17.70;62.40;;;;;;5052296;28;21271;-80
2021/05/13 11:51:03;;;;;;;2.27;1.00;;;17.60;62.90;;;;;;5050609;28;20630;-80
2021/05/13 11:53:30;;;;;;;4.40;1.67;;;17.50;61.80;;;;;;5052763;28;20670;-80
2021/05/13 11:55:58;;;;;;;1.43;1.10;;;17.60;60.30;;;;;;5052212;28;20632;-80
2021/05/13 11:58:47;;;;;;;1.50;1.40;;;17.60;59.60;;;;;;5051992;28;20644;-80
2021/05/13 12:01:29;;;;;;;1.97;1.77;;;17.20;60.60;;;;;;5052455;28;20620;-80
2021/05/13 12:04:09;;;;;;;1.63;1.53;;;17.20;60.50;;;;;;5042099;28;21216;-80
2021/05/13 12:06:44;;;;;;;2.03;1.17;;;17.30;60.20;;;;;;5052645;28;20607;-80
2021/05/13 12:09:11;;;;;;;1.23;0.80;;;17.30;60.10;;;;;;5051227;28;20671;-80
2021/05/13 12:11:39;;;;;;;1.50;1.20;;;17.50;62.30;;;;;;5051445;28;20616;-80
2021/05/13 12:14:08;;;;;;;1.30;1.20;;;17.50;59.70;;;;;;5051574;28;20625;-79
2021/05/13 12:16:34;;;;;;;3.90;1.13;;;17.30;60.70;;;;;;5051967;28;20630;-80
2021/05/13 12:19:05;;;;;;;0.80;0.80;;;17.60;60.10;;;;;;5050566;28;20632;-80
2021/05/13 12:21:32;;;;;;;1.20;1.20;;;18.00;59.20;;;;;;5051760;28;20626;-80
2021/05/13 12:23:59;;;;;;;1.07;0.97;;;18.10;58.60;;;;;;5051379;28;20644;-80
2021/05/13 12:26:30;;;;;;;1.20;1.10;;;18.10;59.50;;;;;;5051439;28;21054;-80
2021/05/13 12:28:57;;;;;;;2.00;1.37;;;18.20;57.90;;;;;;5049031;28;21619;-82
2021/05/13 12:31:25;;;;;;;1.40;0.77;;;18.20;57.50;;;;;;5051884;28;20615;-81
2021/05/13 12:33:52;;;;;;;1.40;1.30;;;18.20;57.70;;;;;;5051637;28;20610;-80
2021/05/13 12:36:19;;;;;;;1.63;1.20;;;18.40;57.20;;;;;;5050769;28;20628;-80
2021/05/13 12:38:45;;;;;;;1.60;1.03;;;18.00;55.90;;;;;;5049684;28;21055;-80
2021/05/13 12:41:15;;;;;;;1.23;1.17;;;18.10;57.10;;;;;;5051389;28;20729;-79
2021/05/13 12:43:43;;;;;;;2.10;1.00;;;17.90;58.20;;;;;;5050840;28;20635;-80
2021/05/13 12:46:21;;;;;;;1.20;1.00;;;18.50;58.20;;;;;;5051225;28;20622;-80
2021/05/13 12:48:49;;;;;;;1.30;1.20;;;18.60;57.30;;;;;;5050161;28;21199;-80
2021/05/13 12:51:18;;;;;;;0.80;0.77;;;18.40;55.80;;;;;;5050846;28;20629;-80
2021/05/13 12:53:49;;;;;;;1.37;0.83;;;18.00;54.10;;;;;;5050962;28;20660;-80
2021/05/13 12:56:28;;;;;;;1.20;1.00;;;18.10;54.90;;;;;;5051368;28;20669;-80